createdAt,value
2022-11-15T00:05:00.895Z,25.42
2022-11-15T00:15:05.402Z,20.13
2022-11-15T00:25:08.770Z,28.60
2022-11-15T00:35:12.721Z,20.65
2022-11-15T00:45:15.391Z,24.17
2022-11-15T00:55:20.821Z,24.10
2022-11-15T01:05:23.566Z,19.90
2022-11-15T01:15:27.586Z,20.38
2022-11-15T01:25:30.328Z,21.52
2022-11-15T01:35:34.266Z,20.98
2022-11-15T01:45:37.016Z,25.52
2022-11-15T01:55:41.018Z,21.67
2022-11-15T02:05:45.138Z,20.92
2022-11-15T02:16:02.964Z,22.65
2022-11-15T02:26:30.370Z,21.70
2022-11-15T02:36:43.866Z,21.52
2022-11-15T02:47:10.887Z,21.92
2022-11-15T02:57:18.421Z,21.95
2022-11-15T03:07:26.592Z,21.45
2022-11-15T03:17:32.951Z,26.80
2022-11-15T03:27:39.924Z,25.17
2022-11-15T03:37:48.862Z,22.55
2022-11-15T03:47:56.711Z,23.40
2022-11-15T03:58:02.361Z,33.35
2022-11-15T04:08:05.578Z,26.20
2022-11-15T04:18:09.605Z,23.45
2022-11-15T04:28:12.774Z,25.35
2022-11-15T04:38:16.768Z,27.13
2022-11-15T04:48:19.419Z,28.23
2022-11-15T04:58:23.378Z,23.73
2022-11-15T05:08:26.169Z,29.58
2022-11-15T05:18:30.161Z,30.65
2022-11-15T05:28:32.925Z,23.15
2022-11-15T05:38:36.859Z,26.33
2022-11-15T05:48:43.859Z,27.38
2022-11-15T05:58:48.025Z,31.98
2022-11-15T06:08:50.622Z,29.85
2022-11-15T06:18:54.635Z,24.85
2022-11-15T06:28:57.218Z,23.88
2022-11-15T06:39:01.359Z,30.58
2022-11-15T06:49:09.383Z,25.15
2022-11-15T06:59:13.959Z,28.35
2022-11-15T07:09:16.839Z,23.98
2022-11-15T07:19:20.836Z,25.40
2022-11-15T07:29:23.441Z,21.33
2022-11-15T07:39:27.426Z,17.00
2022-11-15T07:49:30.045Z,23.95
2022-11-15T07:59:34.006Z,23.75
2022-11-15T08:09:36.634Z,17.80
2022-11-15T08:19:40.578Z,21.20
2022-11-15T08:29:44.593Z,17.42
2022-11-15T08:39:48.607Z,21.38
2022-11-15T08:49:51.241Z,19.00
2022-11-15T08:59:55.629Z,20.65
2022-11-15T09:09:58.229Z,17.23
2022-11-15T09:20:02.222Z,16.02
2022-11-15T09:30:05.966Z,16.67
2022-11-15T09:40:13.243Z,16.63
2022-11-15T09:50:19.686Z,13.65
2022-11-15T10:00:45.779Z,17.73
2022-11-15T10:11:04.999Z,16.50
2022-11-15T10:21:19.751Z,12.45
2022-11-15T10:31:28.816Z,16.35
2022-11-15T10:41:37.092Z,13.23
2022-11-15T10:51:44.898Z,14.23
2022-11-15T11:01:50.026Z,14.25
2022-11-15T11:11:53.964Z,16.88
2022-11-15T11:22:06.452Z,13.23
2022-11-15T11:32:24.930Z,19.63
2022-11-15T11:42:41.657Z,14.40
2022-11-15T11:52:54.028Z,11.82
2022-11-15T12:03:09.973Z,13.13
2022-11-15T12:13:18.537Z,13.32
2022-11-15T12:23:29.630Z,9.63
2022-11-15T12:33:34.966Z,9.45
2022-11-15T12:43:42.248Z,7.78
2022-11-15T12:53:44.936Z,9.40
2022-11-15T13:04:23.854Z,6.18
2022-11-15T13:14:47.694Z,4.77
2022-11-15T13:24:51.665Z,4.68
2022-11-15T13:34:54.627Z,8.75
2022-11-15T13:45:00.449Z,5.30
2022-11-15T13:55:08.502Z,4.03
2022-11-15T14:05:18.880Z,6.53
2022-11-15T14:15:29.693Z,3.40
2022-11-15T14:25:34.725Z,5.43
2022-11-15T14:35:40.809Z,7.85
2022-11-15T14:45:44.893Z,4.15
2022-11-15T14:55:47.533Z,4.05
2022-11-15T15:05:51.609Z,4.82
2022-11-15T15:15:54.374Z,3.83
2022-11-15T15:25:59.094Z,7.28
2022-11-15T15:36:01.888Z,7.93
2022-11-15T15:46:06.815Z,6.97
2022-11-15T15:56:10.855Z,6.10
2022-11-15T16:06:37.398Z,6.80
2022-11-15T16:16:40.058Z,7.07
2022-11-15T16:26:44.091Z,5.60
2022-11-15T16:36:46.908Z,10.40
2022-11-15T16:46:51.880Z,8.18
2022-11-15T16:56:54.625Z,8.93
2022-11-15T17:06:58.745Z,11.23
2022-11-15T17:17:01.586Z,6.93
2022-11-15T17:27:05.594Z,8.73
2022-11-15T17:37:08.458Z,7.57
2022-11-15T17:47:12.438Z,11.95
2022-11-15T17:57:15.035Z,10.63
2022-11-15T18:07:19.155Z,7.95
2022-11-15T18:17:21.860Z,9.95
2022-11-15T18:27:25.873Z,13.50
2022-11-15T18:37:28.552Z,10.13
2022-11-15T18:47:32.587Z,8.82
2022-11-15T18:57:35.295Z,9.13
2022-11-15T19:07:39.462Z,9.23
2022-11-15T19:17:42.111Z,13.27
2022-11-15T19:27:46.086Z,10.10
2022-11-15T19:37:48.710Z,11.65
2022-11-15T19:47:52.781Z,8.00
2022-11-15T19:57:55.400Z,7.03
2022-11-15T20:07:59.379Z,8.88
2022-11-15T20:18:01.969Z,11.52
2022-11-15T20:28:06.546Z,8.88
2022-11-15T20:38:09.472Z,10.85
2022-11-15T20:48:14.695Z,11.82
2022-11-15T20:58:18.654Z,7.65
2022-11-15T21:08:22.657Z,8.27
2022-11-15T21:18:25.538Z,9.15
2022-11-15T21:28:29.537Z,6.35
2022-11-15T21:38:32.416Z,7.55
2022-11-15T21:48:37.105Z,7.50
2022-11-15T21:58:40.510Z,7.32
2022-11-15T22:08:44.799Z,7.18
2022-11-15T22:18:47.876Z,6.55
2022-11-15T22:28:52.068Z,5.57
2022-11-15T22:38:55.106Z,8.23
2022-11-15T22:49:03.158Z,8.40
2022-11-15T22:59:06.287Z,5.20
2022-11-15T23:09:10.851Z,7.38
2022-11-15T23:19:13.938Z,7.57
2022-11-15T23:29:20.782Z,8.77
2022-11-15T23:39:23.991Z,8.05
2022-11-15T23:49:28.448Z,8.18
2022-11-15T23:59:31.150Z,6.57
